createdAt,value
2022-11-17T00:00:43.029Z,83.72
2022-11-17T00:03:16.597Z,84.11
2022-11-17T00:05:44.635Z,84.06
2022-11-17T00:08:12.654Z,83.97
2022-11-17T00:10:40.490Z,83.97
2022-11-17T00:13:29.464Z,83.50
2022-11-17T00:15:57.249Z,83.50
2022-11-17T00:18:43.823Z,83.48
2022-11-17T00:21:19.498Z,83.32
2022-11-17T00:23:48.276Z,83.32
2022-11-17T00:26:17.910Z,83.61
2022-11-17T00:28:45.611Z,83.65
2022-11-17T00:31:33.246Z,83.38
2022-11-17T00:34:07.011Z,82.77
2022-11-17T00:36:43.400Z,82.65
2022-11-17T00:39:13.028Z,82.67
2022-11-17T00:41:41.087Z,82.56
2022-11-17T00:44:09.512Z,82.78
2022-11-17T00:46:38.332Z,82.73
2022-11-17T00:49:09.912Z,83.46
2022-11-17T00:51:38.122Z,82.55
2022-11-17T00:54:07.155Z,82.63
2022-11-17T00:56:34.914Z,82.38
2022-11-17T00:59:03.151Z,82.25
2022-11-17T01:01:31.243Z,82.02
2022-11-17T01:04:03.355Z,81.60
2022-11-17T01:06:43.292Z,81.97
2022-11-17T01:09:15.884Z,81.92
2022-11-17T01:11:44.200Z,82.72
2022-11-17T01:14:16.215Z,81.95
2022-11-17T01:16:44.240Z,81.14
2022-11-17T01:19:13.913Z,80.67
2022-11-17T01:21:41.968Z,80.08
2022-11-17T01:24:11.586Z,80.06
2022-11-17T01:26:40.535Z,80.42
2022-11-17T01:29:10.814Z,80.95
2022-11-17T01:31:40.796Z,80.48
2022-11-17T01:34:08.825Z,80.33
2022-11-17T01:36:58.039Z,79.73
2022-11-17T01:39:27.635Z,80.13
2022-11-17T01:41:56.188Z,79.99
2022-11-17T01:44:36.387Z,80.11
2022-11-17T01:47:08.097Z,80.19
2022-11-17T01:49:35.887Z,80.23
2022-11-17T01:52:07.568Z,80.36
2022-11-17T01:54:40.482Z,80.46
2022-11-17T01:57:14.829Z,80.82
2022-11-17T01:59:48.900Z,81.25
2022-11-17T02:02:19.030Z,80.91
2022-11-17T02:04:55.642Z,80.87
2022-11-17T02:07:30.270Z,80.35
2022-11-17T02:09:59.608Z,80.42
2022-11-17T02:12:28.283Z,80.39
2022-11-17T02:14:56.231Z,80.32
2022-11-17T02:17:29.679Z,81.06
2022-11-17T02:20:03.356Z,81.00
2022-11-17T02:22:55.486Z,80.85
2022-11-17T02:25:32.254Z,81.18
2022-11-17T02:28:17.471Z,80.55
2022-11-17T02:31:01.708Z,80.40
2022-11-17T02:33:38.579Z,80.48
2022-11-17T02:36:33.454Z,80.98
2022-11-17T02:39:38.516Z,81.03
2022-11-17T02:43:00.281Z,81.16
2022-11-17T02:45:35.852Z,81.31
2022-11-17T02:48:12.853Z,80.88
2022-11-17T02:50:44.660Z,80.80
2022-11-17T02:53:14.054Z,80.74
2022-11-17T02:55:49.460Z,80.98
2022-11-17T02:58:17.379Z,80.84
2022-11-17T03:01:05.919Z,80.83
2022-11-17T03:03:42.740Z,80.76
2022-11-17T03:06:35.999Z,81.58
2022-11-17T03:09:12.870Z,81.26
2022-11-17T03:11:49.843Z,81.56
2022-11-17T03:14:38.072Z,81.14
2022-11-17T03:17:30.386Z,81.13
2022-11-17T03:20:31.392Z,81.08
2022-11-17T03:23:09.952Z,80.60
2022-11-17T03:25:41.100Z,80.73
2022-11-17T03:28:10.608Z,80.86
2022-11-17T03:30:43.172Z,80.57
2022-11-17T03:33:16.517Z,80.68
2022-11-17T03:36:08.189Z,80.72
2022-11-17T03:38:41.022Z,81.20
2022-11-17T03:41:12.317Z,81.14
2022-11-17T03:43:42.907Z,80.61
2022-11-17T03:46:15.961Z,80.52
2022-11-17T03:49:02.990Z,80.31
2022-11-17T03:51:33.227Z,80.48
2022-11-17T03:54:01.373Z,80.53
2022-11-17T03:56:55.497Z,80.36
2022-11-17T03:59:31.320Z,80.45
2022-11-17T04:01:59.557Z,81.04
2022-11-17T04:04:47.693Z,81.00
2022-11-17T04:07:15.438Z,80.95
2022-11-17T04:09:43.209Z,80.26
2022-11-17T04:12:29.386Z,80.45
2022-11-17T04:15:15.511Z,80.61
2022-11-17T04:17:43.594Z,80.33
2022-11-17T04:20:11.552Z,80.21
2022-11-17T04:22:39.336Z,80.52
2022-11-17T04:25:07.647Z,80.42
2022-11-17T04:27:55.040Z,80.68
2022-11-17T04:30:23.223Z,80.76
2022-11-17T04:32:51.114Z,80.30
2022-11-17T04:35:18.797Z,80.51
2022-11-17T04:37:46.467Z,80.91
2022-11-17T04:40:14.668Z,81.28
2022-11-17T04:42:42.380Z,81.64
2022-11-17T04:45:10.493Z,81.74
2022-11-17T04:47:38.183Z,81.53
2022-11-17T04:50:06.687Z,80.85
2022-11-17T04:52:34.385Z,80.58
2022-11-17T04:55:02.088Z,80.47
2022-11-17T04:57:29.782Z,80.38
2022-11-17T04:59:57.481Z,80.66
2022-11-17T05:02:25.337Z,80.87
2022-11-17T05:04:55.918Z,80.87
2022-11-17T05:07:24.220Z,81.43
2022-11-17T05:09:52.024Z,82.06
2022-11-17T05:12:38.025Z,81.67
2022-11-17T05:15:06.351Z,80.99
2022-11-17T05:17:34.096Z,80.74
2022-11-17T05:20:01.913Z,80.47
2022-11-17T05:22:48.758Z,80.58
2022-11-17T05:25:18.199Z,80.30
2022-11-17T05:27:45.880Z,80.76
2022-11-17T05:30:13.975Z,80.36
2022-11-17T05:32:41.794Z,80.93
2022-11-17T05:35:09.729Z,80.52
2022-11-17T05:37:37.394Z,80.40
2022-11-17T05:40:05.652Z,81.05
2022-11-17T05:42:34.096Z,81.35
2022-11-17T05:45:01.823Z,81.97
2022-11-17T05:47:29.509Z,81.21
2022-11-17T05:49:57.264Z,80.45
2022-11-17T05:52:25.038Z,80.51
2022-11-17T05:54:52.749Z,80.40
2022-11-17T05:57:28.787Z,80.02
2022-11-17T06:00:04.327Z,80.10
2022-11-17T06:02:48.063Z,80.30
2022-11-17T06:05:20.200Z,80.63
2022-11-17T06:07:48.780Z,80.27
2022-11-17T06:10:16.897Z,80.44
2022-11-17T06:12:44.655Z,80.31
2022-11-17T06:15:12.804Z,80.38
2022-11-17T06:17:46.985Z,80.19
2022-11-17T06:20:28.285Z,79.67
2022-11-17T06:22:57.965Z,79.41
2022-11-17T06:25:27.669Z,79.63
2022-11-17T06:27:57.881Z,79.94
2022-11-17T06:30:25.742Z,79.88
2022-11-17T06:32:53.547Z,79.90
2022-11-17T06:35:21.303Z,79.49
2022-11-17T06:37:49.087Z,79.14
2022-11-17T06:40:17.558Z,79.50
2022-11-17T06:43:03.672Z,80.19
2022-11-17T06:45:39.367Z,80.03
2022-11-17T06:48:08.276Z,79.60
2022-11-17T06:50:38.391Z,78.62
2022-11-17T06:53:08.187Z,79.13
2022-11-17T06:55:37.111Z,78.63
2022-11-17T06:58:07.462Z,78.42
2022-11-17T07:00:37.106Z,78.53
2022-11-17T07:03:09.907Z,78.08
2022-11-17T07:05:40.199Z,77.86
2022-11-17T07:08:09.615Z,78.59
2022-11-17T07:10:37.962Z,78.91
2022-11-17T07:13:05.988Z,78.47
2022-11-17T07:15:33.867Z,77.92
2022-11-17T07:18:01.696Z,77.64
2022-11-17T07:20:29.446Z,76.91
2022-11-17T07:23:00.376Z,77.73
2022-11-17T07:25:28.295Z,76.43
2022-11-17T07:28:00.070Z,76.29
2022-11-17T07:30:28.254Z,76.31
2022-11-17T07:32:59.497Z,75.78
2022-11-17T07:35:28.405Z,75.37
2022-11-17T07:37:58.441Z,75.64
2022-11-17T07:40:26.316Z,75.63
2022-11-17T07:42:54.722Z,75.32
2022-11-17T07:45:25.091Z,74.70
2022-11-17T07:47:57.026Z,74.74
2022-11-17T07:50:26.476Z,75.42
2022-11-17T07:52:56.843Z,75.59
2022-11-17T07:55:25.774Z,75.71
2022-11-17T07:57:58.199Z,75.27
2022-11-17T08:00:27.903Z,75.27
2022-11-17T08:02:56.127Z,75.69
2022-11-17T08:05:24.857Z,75.98
2022-11-17T08:07:57.476Z,75.45
2022-11-17T08:10:31.255Z,76.08
2022-11-17T08:13:00.920Z,75.97
2022-11-17T08:15:29.648Z,75.48
2022-11-17T08:17:59.574Z,76.07
2022-11-17T08:20:29.384Z,75.77
2022-11-17T08:22:57.320Z,76.18
2022-11-17T08:25:26.817Z,76.56
2022-11-17T08:27:56.295Z,76.37
2022-11-17T08:30:24.916Z,76.01
2022-11-17T08:32:54.707Z,76.02
2022-11-17T08:35:25.094Z,76.49
2022-11-17T08:37:53.433Z,76.52
2022-11-17T08:40:21.851Z,76.71
2022-11-17T08:43:00.406Z,76.26
2022-11-17T08:45:29.641Z,76.23
2022-11-17T08:47:57.445Z,76.54
2022-11-17T08:50:25.713Z,76.77
2022-11-17T08:52:53.719Z,77.21
2022-11-17T08:55:21.650Z,77.21
2022-11-17T08:57:49.523Z,77.31
2022-11-17T09:00:20.015Z,77.70
2022-11-17T09:02:48.016Z,77.05
2022-11-17T09:05:15.793Z,77.10
2022-11-17T09:07:44.861Z,76.40
2022-11-17T09:10:23.453Z,76.56
2022-11-17T09:12:55.929Z,76.53
2022-11-17T09:15:24.723Z,76.73
2022-11-17T09:17:52.458Z,76.68
2022-11-17T09:20:20.582Z,76.67
2022-11-17T09:22:48.583Z,76.78
2022-11-17T09:25:16.892Z,76.64
2022-11-17T09:27:44.648Z,76.88
2022-11-17T09:30:12.913Z,76.19
2022-11-17T09:32:40.731Z,76.05
2022-11-17T09:35:09.425Z,75.81
2022-11-17T09:37:37.206Z,75.85
2022-11-17T09:40:05.796Z,76.10
2022-11-17T09:42:38.654Z,76.25
2022-11-17T09:45:29.283Z,76.07
2022-11-17T09:48:33.581Z,75.71
2022-11-17T09:50:57.999Z,75.65
2022-11-17T09:53:29.562Z,75.56
2022-11-17T09:56:06.991Z,75.94
2022-11-17T09:58:42.869Z,76.06
2022-11-17T10:01:16.785Z,76.19
2022-11-17T10:03:48.044Z,76.87
2022-11-17T10:06:20.009Z,76.85
2022-11-17T10:09:29.614Z,77.34
2022-11-17T10:12:14.269Z,77.57
2022-11-17T10:14:42.730Z,77.23
2022-11-17T10:17:11.618Z,77.17
2022-11-17T10:19:39.995Z,76.93
2022-11-17T10:22:07.732Z,76.78
2022-11-17T10:24:47.571Z,76.71
2022-11-17T10:27:22.312Z,76.92
2022-11-17T10:29:59.306Z,76.74
2022-11-17T10:32:34.407Z,76.83
2022-11-17T10:35:20.500Z,76.93
2022-11-17T10:38:02.139Z,76.82
2022-11-17T10:40:31.391Z,77.01
2022-11-17T10:43:11.362Z,76.88
2022-11-17T10:45:45.776Z,77.22
2022-11-17T10:48:27.534Z,77.01
2022-11-17T10:51:21.622Z,76.62
2022-11-17T10:54:03.358Z,76.68
2022-11-17T10:56:33.527Z,76.63
2022-11-17T10:59:19.037Z,76.31
2022-11-17T11:01:50.398Z,75.88
2022-11-17T11:04:42.134Z,76.14
2022-11-17T11:07:19.282Z,76.04
2022-11-17T11:09:56.103Z,76.24
2022-11-17T11:12:36.272Z,76.19
2022-11-17T11:15:35.310Z,76.21
2022-11-17T11:18:16.383Z,76.77
2022-11-17T11:20:47.507Z,76.74
2022-11-17T11:23:35.351Z,76.51
2022-11-17T11:26:22.066Z,76.34
2022-11-17T11:29:01.748Z,76.45
2022-11-17T11:31:51.089Z,75.99
2022-11-17T11:34:21.824Z,76.43
2022-11-17T11:37:11.492Z,76.30
2022-11-17T11:39:50.099Z,76.46
2022-11-17T11:42:50.309Z,76.34
2022-11-17T11:45:36.665Z,76.54
2022-11-17T11:48:23.120Z,76.59
2022-11-17T11:51:02.330Z,76.55
2022-11-17T11:53:48.150Z,76.24
2022-11-17T11:56:22.248Z,76.96
2022-11-17T11:59:13.148Z,77.29
2022-11-17T12:02:11.391Z,77.39
2022-11-17T12:05:02.426Z,77.29
2022-11-17T12:07:51.250Z,77.03
2022-11-17T12:10:34.352Z,76.37
2022-11-17T12:13:04.261Z,76.38
2022-11-17T12:15:36.059Z,75.77
2022-11-17T12:18:14.219Z,75.96
2022-11-17T12:20:57.912Z,76.12
2022-11-17T12:23:34.764Z,76.03
2022-11-17T12:26:03.021Z,75.78
2022-11-17T12:28:41.236Z,75.64
2022-11-17T12:31:24.144Z,75.45
2022-11-17T12:33:51.894Z,75.16
2022-11-17T12:36:33.549Z,75.26
2022-11-17T12:39:04.043Z,74.64
2022-11-17T12:42:05.386Z,75.13
2022-11-17T12:44:44.192Z,74.66
2022-11-17T12:48:05.242Z,74.02
2022-11-17T12:50:51.818Z,73.42
2022-11-17T12:53:38.595Z,73.58
2022-11-17T12:56:28.172Z,73.78
2022-11-17T12:59:04.829Z,73.80
2022-11-17T13:01:42.205Z,73.70
2022-11-17T13:04:13.291Z,72.56
2022-11-17T13:07:06.151Z,73.35
2022-11-17T13:09:36.470Z,73.40
2022-11-17T13:12:07.338Z,73.62
2022-11-17T13:14:50.993Z,74.20
2022-11-17T13:17:21.835Z,73.80
2022-11-17T13:19:58.565Z,73.88
2022-11-17T13:22:26.790Z,74.49
2022-11-17T13:24:55.137Z,73.87
2022-11-17T13:27:24.861Z,73.57
2022-11-17T13:30:11.461Z,73.09
2022-11-17T13:32:40.761Z,73.30
2022-11-17T13:35:30.395Z,73.08
2022-11-17T13:38:21.527Z,73.71
2022-11-17T13:40:51.572Z,73.03
2022-11-17T13:43:22.716Z,73.39
2022-11-17T13:45:51.933Z,73.35
2022-11-17T13:48:40.490Z,72.95
2022-11-17T13:51:20.300Z,72.70
2022-11-17T13:53:57.746Z,72.57
2022-11-17T13:56:40.007Z,73.27
2022-11-17T13:59:24.150Z,73.04
2022-11-17T14:02:16.706Z,72.60
2022-11-17T14:05:04.606Z,71.64
2022-11-17T14:07:37.883Z,71.94
2022-11-17T14:10:20.993Z,71.77
2022-11-17T14:12:54.198Z,71.78
2022-11-17T14:15:22.952Z,70.98
2022-11-17T14:17:53.092Z,72.06
2022-11-17T14:20:23.589Z,72.19
2022-11-17T14:23:10.191Z,72.70
2022-11-17T14:25:41.551Z,72.51
2022-11-17T14:28:18.030Z,72.92
2022-11-17T14:30:50.375Z,73.10
2022-11-17T14:33:18.771Z,73.31
2022-11-17T14:35:50.991Z,73.79
2022-11-17T14:38:20.426Z,73.59
2022-11-17T14:40:51.136Z,73.86
2022-11-17T14:43:19.938Z,75.02
2022-11-17T14:45:49.272Z,74.73
2022-11-17T14:48:19.335Z,75.14
2022-11-17T14:50:48.593Z,75.33
2022-11-17T14:53:16.435Z,75.19
2022-11-17T14:55:45.288Z,75.08
2022-11-17T14:58:12.996Z,75.40
2022-11-17T15:00:40.797Z,75.24
2022-11-17T15:03:08.631Z,75.40
2022-11-17T15:05:36.671Z,76.47
2022-11-17T15:08:06.103Z,76.20
2022-11-17T15:10:34.263Z,76.18
2022-11-17T15:13:02.149Z,76.56
2022-11-17T15:15:29.939Z,76.70
2022-11-17T15:17:57.894Z,76.40
2022-11-17T15:20:25.941Z,76.65
2022-11-17T15:22:54.579Z,77.15
2022-11-17T15:25:24.697Z,77.04
2022-11-17T15:27:54.743Z,77.03
2022-11-17T15:30:22.572Z,77.37
2022-11-17T15:32:50.298Z,78.07
2022-11-17T15:35:19.212Z,78.38
2022-11-17T15:37:46.992Z,78.60
2022-11-17T15:40:19.289Z,78.04
2022-11-17T15:42:47.344Z,77.61
2022-11-17T15:45:15.169Z,78.35
2022-11-17T15:47:42.990Z,78.42
2022-11-17T15:50:10.858Z,78.69
2022-11-17T15:53:02.926Z,78.19
2022-11-17T15:55:27.041Z,77.99
2022-11-17T15:57:55.241Z,77.84
2022-11-17T16:00:23.144Z,78.05
2022-11-17T16:02:55.678Z,78.97
2022-11-17T16:05:26.227Z,79.47
2022-11-17T16:07:54.188Z,78.38
2022-11-17T16:10:22.075Z,78.33
2022-11-17T16:12:51.259Z,78.03
2022-11-17T16:15:18.993Z,78.61
2022-11-17T16:17:46.751Z,78.90
2022-11-17T16:20:14.998Z,78.89
2022-11-17T16:22:42.913Z,78.75
2022-11-17T16:25:10.651Z,78.54
2022-11-17T16:27:38.576Z,78.80
2022-11-17T16:30:06.789Z,78.68
2022-11-17T16:32:34.525Z,78.57
2022-11-17T16:35:02.229Z,78.98
2022-11-17T16:37:29.996Z,78.81
2022-11-17T16:39:57.868Z,78.84
2022-11-17T16:42:25.856Z,78.47
2022-11-17T16:44:53.816Z,79.00
2022-11-17T16:47:21.634Z,78.94
2022-11-17T16:49:51.873Z,78.68
2022-11-17T16:52:19.926Z,78.39
2022-11-17T16:54:50.089Z,78.48
2022-11-17T16:57:18.230Z,79.25
2022-11-17T16:59:46.170Z,79.38
2022-11-17T17:02:14.061Z,79.26
2022-11-17T17:04:41.789Z,79.19
2022-11-17T17:07:09.870Z,79.81
2022-11-17T17:09:37.937Z,79.30
2022-11-17T17:12:06.089Z,79.27
2022-11-17T17:14:33.864Z,80.06
2022-11-17T17:17:01.718Z,79.90
2022-11-17T17:19:29.617Z,80.20
2022-11-17T17:21:58.379Z,80.71
2022-11-17T17:24:28.490Z,81.79
2022-11-17T17:26:56.279Z,81.61
2022-11-17T17:29:24.010Z,80.68
2022-11-17T17:31:51.791Z,80.88
2022-11-17T17:34:19.578Z,81.29
2022-11-17T17:36:48.751Z,81.26
2022-11-17T17:39:17.147Z,81.69
2022-11-17T17:41:46.180Z,81.31
2022-11-17T17:44:19.656Z,80.97
2022-11-17T17:46:48.429Z,80.70
2022-11-17T17:49:18.986Z,81.58
2022-11-17T17:51:47.539Z,81.50
2022-11-17T17:54:20.136Z,81.33
2022-11-17T17:56:48.842Z,80.79
2022-11-17T17:59:17.172Z,80.49
2022-11-17T18:01:47.530Z,80.07
2022-11-17T18:04:16.861Z,79.66
2022-11-17T18:06:47.750Z,79.57
2022-11-17T18:09:19.019Z,79.51
2022-11-17T18:11:50.042Z,79.91
2022-11-17T18:14:23.920Z,80.31
2022-11-17T18:16:52.085Z,80.55
2022-11-17T18:19:20.384Z,80.28
2022-11-17T18:21:48.157Z,79.70
2022-11-17T18:24:16.048Z,79.42
2022-11-17T18:26:45.137Z,79.07
2022-11-17T18:29:16.216Z,78.80
2022-11-17T18:31:46.920Z,78.05
2022-11-17T18:34:16.728Z,78.66
2022-11-17T18:36:44.711Z,78.47
2022-11-17T18:39:13.016Z,77.80
2022-11-17T18:41:40.903Z,77.60
2022-11-17T18:44:12.018Z,77.34
2022-11-17T18:46:39.968Z,77.72
2022-11-17T18:49:07.796Z,78.04
2022-11-17T18:51:36.002Z,78.08
2022-11-17T18:54:04.634Z,77.99
2022-11-17T18:56:34.847Z,77.52
2022-11-17T18:59:11.548Z,77.82
2022-11-17T19:01:41.589Z,78.71
2022-11-17T19:04:11.546Z,77.89
2022-11-17T19:06:39.503Z,78.45
2022-11-17T19:09:08.656Z,77.93
2022-11-17T19:11:36.622Z,76.48
2022-11-17T19:14:05.577Z,77.73
2022-11-17T19:16:42.592Z,77.79
2022-11-17T19:19:13.670Z,77.54
2022-11-17T19:21:42.710Z,77.70
2022-11-17T19:24:10.517Z,77.38
2022-11-17T19:26:39.180Z,77.74
2022-11-17T19:29:15.619Z,77.53
2022-11-17T19:35:13.814Z,79.15
2022-11-17T19:37:42.980Z,79.07
2022-11-17T19:40:10.965Z,79.68
2022-11-17T19:42:38.756Z,79.30
2022-11-17T19:45:06.901Z,79.50
2022-11-17T19:47:35.806Z,79.22
2022-11-17T19:50:03.897Z,79.29
2022-11-17T19:52:31.765Z,79.78
2022-11-17T19:54:59.529Z,80.15
2022-11-17T19:57:27.502Z,78.75
2022-11-17T19:59:55.237Z,78.41
2022-11-17T20:02:22.945Z,78.93
2022-11-17T20:04:50.686Z,78.65
2022-11-17T20:07:18.533Z,76.92
2022-11-17T20:09:46.301Z,76.73
2022-11-17T20:12:14.026Z,77.59
2022-11-17T20:14:42.015Z,77.79
2022-11-17T20:17:09.731Z,76.66
2022-11-17T20:19:37.415Z,77.14
2022-11-17T20:22:05.114Z,77.00
2022-11-17T20:24:33.037Z,76.82
2022-11-17T20:27:00.884Z,77.49
2022-11-17T20:29:28.682Z,78.54
2022-11-17T20:45:41.214Z,78.31
2022-11-17T20:48:08.984Z,77.57
2022-11-17T20:50:36.779Z,77.42
2022-11-17T20:53:04.583Z,77.76
2022-11-17T20:55:33.334Z,78.03
2022-11-17T20:58:01.248Z,77.95
2022-11-17T21:00:28.993Z,77.51
2022-11-17T21:02:57.052Z,77.43
2022-11-17T21:05:24.825Z,76.78
2022-11-17T21:07:52.579Z,76.65
2022-11-17T21:10:20.407Z,77.39
2022-11-17T21:12:48.158Z,77.69
2022-11-17T21:15:16.008Z,77.73
2022-11-17T21:18:02.220Z,78.27
2022-11-17T21:20:30.950Z,78.57
2022-11-17T21:22:58.922Z,77.98
2022-11-17T21:25:26.780Z,77.78
2022-11-17T21:27:56.638Z,78.45
2022-11-17T21:30:24.319Z,78.88
2022-11-17T21:32:52.026Z,78.90
2022-11-17T21:35:20.741Z,78.76
2022-11-17T21:37:48.482Z,78.35
2022-11-17T21:40:16.918Z,77.59
2022-11-17T21:42:45.368Z,77.27
2022-11-17T21:45:13.261Z,76.97
2022-11-17T21:47:41.015Z,77.21
2022-11-17T21:50:09.343Z,77.08
2022-11-17T21:52:37.135Z,77.33
2022-11-17T21:55:05.285Z,77.50
2022-11-17T21:57:33.085Z,77.64
2022-11-17T22:00:00.779Z,78.31
2022-11-17T22:02:28.595Z,78.41
2022-11-17T22:04:56.356Z,78.53
2022-11-17T22:07:24.126Z,78.37
2022-11-17T22:09:51.896Z,78.44
2022-11-17T22:12:19.632Z,78.49
2022-11-17T22:14:47.513Z,78.77
2022-11-17T22:17:15.238Z,79.23
2022-11-17T22:19:43.059Z,79.94
2022-11-17T22:22:10.801Z,80.02
2022-11-17T22:24:39.847Z,79.91
2022-11-17T22:27:07.927Z,79.50
2022-11-17T22:29:35.689Z,79.20
2022-11-17T22:32:03.575Z,78.83
2022-11-17T22:34:31.269Z,79.02
2022-11-17T22:36:58.969Z,79.17
2022-11-17T22:39:26.668Z,79.15
2022-11-17T22:41:54.443Z,79.70
2022-11-17T22:44:22.233Z,80.30
2022-11-17T22:46:50.493Z,80.13
2022-11-17T22:49:18.488Z,79.76
2022-11-17T22:52:05.732Z,79.39
2022-11-17T22:54:34.614Z,79.99
2022-11-17T22:57:02.471Z,79.56
2022-11-17T22:59:30.658Z,79.71
2022-11-17T23:01:58.557Z,79.50
2022-11-17T23:04:26.512Z,79.81
2022-11-17T23:06:54.481Z,80.36
2022-11-17T23:09:22.323Z,80.83
2022-11-17T23:11:52.472Z,80.41
2022-11-17T23:14:20.327Z,80.21
2022-11-17T23:16:48.281Z,80.94
2022-11-17T23:19:16.404Z,80.62
2022-11-17T23:21:44.387Z,80.06
2022-11-17T23:24:14.472Z,79.78
2022-11-17T23:26:42.622Z,79.90
2022-11-17T23:29:10.624Z,80.22
2022-11-17T23:31:38.454Z,80.41
2022-11-17T23:34:08.802Z,81.31
2022-11-17T23:36:36.845Z,82.14
2022-11-17T23:39:04.797Z,81.78
2022-11-17T23:41:32.883Z,81.53
2022-11-17T23:44:00.789Z,81.19
2022-11-17T23:46:28.508Z,81.45
2022-11-17T23:48:57.206Z,81.71
2022-11-17T23:51:26.527Z,82.00
2022-11-17T23:53:54.310Z,82.38
2022-11-17T23:56:22.700Z,81.89
2022-11-17T23:58:51.652Z,82.78
